Agency Village, South Dakota
Current Conditions -  °F | °C
As of 10:56 PM on Friday 28 Nov 2014 (Local Time) from KETH Reporting Station
Overcast Overcast  
Wind Chill:   Ceiling: 800
Heat Index: 18°   Visibility: 7mi
Dew Point: 16°   Wind: 12mph
Humidity: 93%   Direction: 130°SE
Pressure: 29.61"   Gusts: NA
Location:  45.7041°N, 96.9842°W
Report Text: KETH 290456Z AUTO 13010KT 7SM OVC008 M08/M09 A2961 RMK AO2
Loading
Personal Weather Stations






























Interactive Weather Map New forecast layout! Learn more

10-Day Weather Forecast

Advertisements
Track Severe Weather on mobile